Adak Island, Alaska
Current Conditions -  °F | °C
As of 1:36 PM on Monday 20 Oct 2014 (Local Time) from PADK Reporting Station
Overcast Overcast  
Wind Chill: 37°   Ceiling: 5500
Heat Index: 43°   Visibility: 10mi
Dew Point: 30°   Wind: 12mph
Humidity: 61%   Direction: 10°N
Pressure: 29.92"   Gusts: NA
Location:  51.88°N, 176.65°W
Report Text: PADK 202236Z AUTO 01010KT 10SM FEW024 SCT044 OVC055 06/M01 A2992 RMK AO1
Loading
Personal Weather Stations






























Interactive Weather Map
Tropical Storm Tracking
New forecast layout! Learn more

10-Day Weather Forecast

Advertisements
Track Severe Weather on mobile